Aérodrome :
LOGIN :

S'inscrire | Disclaimer

   EN    FR    IT 

 










Légende :    VFR   VFR Marginal   IFR   IFR Intensif   IFR Très Intensif
Visi : 
Plafond : 
>= 8 km
>= 3000ft
5 à 8 km
1000 à 3000 ft
1500m à 5 km
500 à 1000 ft
800 à 1500m
200 à 500 ft
< 800m
< 200 ft
Symboles :   Orages  Brouillard  Fortes neiges  Fortes précipitations  Vent > 20 kt
SIGMETs :   Divers  Orages  Givrage  Turbulence  Onde Orograph.  Cendres Volcan.






- Altitude de l'aérodrome : 53 ft
- Code IATA : AGP


LEMG - Malaga

DERNIER METAR :
  • 201500Z 18007KT 130V230 9999 SCT065 21/09 Q1013 NOSIG

METARs EXPIRÉS :
  • 201430Z 17008KT 120V230 9999 SCT060 21/11 Q1013 NOSIG
  • 201400Z 15007KT 100V210 9999 SCT055 20/11 Q1013 NOSIG
  • 201330Z 18009KT 120V230 9999 SCT055 20/11 Q1013 NOSIG
  • 201300Z 17008KT 130V240 9999 SCT055 20/10 Q1013 NOSIG
  • 201230Z 19009KT 150V240 9999 SCT050 20/11 Q1013 NOSIG

TAF TAF LEMG
Valide du 20 à 12h jusqu'au 21 à 12h UTC


201100Z 2012/2112 15005KT 9999 FEW035 TX23/2015Z TN12/2106Z
BECMG 2014/2016 30006KT



MET'MAP, la Météo Aéronautique d'un coup d'oeil ! - Copyright ORBIFLY Décembre 2007 - Disclaimer

ORBIFLY MET'MAP TEAM :

Programmation & Développement : Alexandra Zaïnal
Conception & Développement : Baudouin d'Aumeries
Co-Programmation & Développement : Marc-Olivier Méhu
Soutien technique & logistique : Manuel Goepfert

Contact : metmap@orbifly.com




SOURCES & CREDITS :

   NOAA